Time,TemperatureF,DewpointF,PressureIn,WindDirection,WindDirectionDegrees,WindSpeedMPH,WindSpeedGustMPH,Humidity,HourlyPrecipIn,Conditions,Clouds,dailyrainin,SoftwareType,DateUTC
2013-08-25 00:04:00,66.1,41.1,29.73,SSW,192,11.5,11.5,40,0.00,OVC,,0.00,WeatherDisplay:10.37,2013-08-25 07:04:00,
2013-08-25 00:09:00,65.9,41.5,29.74,South,175,10.4,10.4,41,0.00,OVC,,0.00,WeatherDisplay:10.37,2013-08-25 07:09:00,
2013-08-25 00:14:00,65.5,41.2,29.74,SSW,200,9.2,9.2,41,0.00,OVC,,0.00,WeatherDisplay:10.37,2013-08-25 07:14:00,
2013-08-25 00:19:00,65.6,41.3,29.74,South,180,6.0,6.0,41,0.00,OVC,,0.00,WeatherDisplay:10.37,2013-08-25 07:19:00,
2013-08-25 00:24:00,65.1,41.4,29.75,South,188,5.8,5.8,42,0.00,OVC,,0.00,WeatherDisplay:10.37,2013-08-25 07:24:00,
2013-08-25 00:29:00,65.4,42.3,29.75,South,173,6.9,6.9,43,0.00,OVC,,0.00,WeatherDisplay:10.37,2013-08-25 07:29:00,
2013-08-25 00:34:00,65.8,42.1,29.75,South,187,7.0,7.0,42,0.00,OVC,,0.00,WeatherDisplay:10.37,2013-08-25 07:34:00,
2013-08-25 00:39:00,65.2,41.5,29.75,SW,227,5.8,5.8,42,0.00,OVC,,0.00,WeatherDisplay:10.37,2013-08-25 07:39:00,
2013-08-25 00:44:00,64.9,41.9,29.75,WSW,238,5.8,5.8,43,0.00,OVC,,0.00,WeatherDisplay:10.37,2013-08-25 07:44:00,
2013-08-25 00:49:00,64.5,40.9,29.75,WSW,245,5.8,5.8,42,0.00,OVC,,0.00,WeatherDisplay:10.37,2013-08-25 07:49:00,
2013-08-25 00:54:00,64.4,41.4,29.75,West,259,6.0,6.0,43,0.00,OVC,,0.00,WeatherDisplay:10.37,2013-08-25 07:54:00,
2013-08-25 00:59:00,65.0,41.3,29.74,WSW,246,9.2,9.2,42,0.00,CLR,,0.00,WeatherDisplay:10.37,2013-08-25 07:59:00,
2013-08-25 01:04:00,64.5,40.9,29.74,WSW,254,5.8,5.8,42,0.00,OVC,,0.00,WeatherDisplay:10.37,2013-08-25 08:04:00,
2013-08-25 01:09:00,63.6,40.1,29.75,WSW,253,5.0,5.0,42,0.00,OVC,,0.00,WeatherDisplay:10.37,2013-08-25 08:09:00,
2013-08-25 01:14:00,63.5,40.6,29.75,WSW,240,6.9,6.9,43,0.00,OVC,,0.00,WeatherDisplay:10.37,2013-08-25 08:14:00,
2013-08-25 01:19:00,64.1,40.5,29.74,SW,232,7.0,7.0,42,0.00,OVC,,0.00,WeatherDisplay:10.37,2013-08-25 08:19:00,
2013-08-25 01:24:00,63.6,40.1,29.74,SW,234,5.8,5.8,42,0.00,OVC,,0.00,WeatherDisplay:10.37,2013-08-25 08:24:00,
2013-08-25 01:29:00,63.1,39.6,29.75,WSW,238,5.0,5.0,42,0.00,OVC,,0.00,WeatherDisplay:10.37,2013-08-25 08:29:00,
2013-08-25 01:34:00,63.1,40.2,29.75,WSW,240,1.1,1.1,43,0.00,OVC,,0.00,WeatherDisplay:10.37,2013-08-25 08:34:00,
2013-08-25 01:39:00,61.9,39.1,29.75,ENE,62,2.3,2.3,43,0.00,OVC,,0.00,WeatherDisplay:10.37,2013-08-25 08:39:00,
2013-08-25 01:44:00,62.2,40.6,29.75,SSW,198,3.5,3.5,45,0.00,OVC,,0.00,WeatherDisplay:10.37,2013-08-25 08:44:00,
2013-08-25 01:49:00,63.1,40.8,29.75,South,174,3.5,3.5,44,0.00,OVC,,0.00,WeatherDisplay:10.37,2013-08-25 08:49:00,
2013-08-25 01:54:00,63.6,41.9,29.75,WSW,241,4.6,4.6,45,0.00,OVC,,0.00,WeatherDisplay:10.37,2013-08-25 08:54:00,
2013-08-25 01:59:00,63.2,40.9,29.75,WSW,257,5.0,5.0,44,0.00,OVC,,0.00,WeatherDisplay:10.37,2013-08-25 08:59:00,
2013-08-25 02:04:00,63.1,40.2,29.75,WSW,256,6.0,6.0,43,0.00,OVC,,0.00,WeatherDisplay:10.37,2013-08-25 09:04:00,
2013-08-25 02:09:00,63.2,40.9,29.74,WSW,255,8.1,8.1,44,0.00,OVC,,0.00,WeatherDisplay:10.37,2013-08-25 09:09:00,
2013-08-25 02:14:00,63.4,41.1,29.74,WSW,258,9.2,9.2,44,0.00,OVC,,0.00,WeatherDisplay:10.37,2013-08-25 09:14:00,
2013-08-25 02:19:00,62.6,40.4,29.74,WSW,254,9.2,9.2,44,0.00,OVC,,0.00,WeatherDisplay:10.37,2013-08-25 09:19:00,
2013-08-25 02:24:00,61.9,40.3,29.74,West,259,10.4,10.4,45,0.00,OVC,,0.00,WeatherDisplay:10.37,2013-08-25 09:24:00,
2013-08-25 02:29:00,62.2,40.6,29.74,WSW,257,10.4,10.4,45,0.00,OVC,,0.00,WeatherDisplay:10.37,2013-08-25 09:29:00,
2013-08-25 02:35:00,61.6,39.5,29.74,West,264,11.5,11.5,44,0.00,OVC,,0.00,WeatherDisplay:10.37,2013-08-25 09:35:00,
2013-08-25 02:40:00,61.6,38.9,29.74,WSW,246,11.5,11.5,43,0.00,OVC,,0.00,WeatherDisplay:10.37,2013-08-25 09:40:00,
2013-08-25 02:45:00,63.1,37.7,29.74,WSW,246,12.0,12.0,39,0.00,OVC,,0.00,WeatherDisplay:10.37,2013-08-25 09:45:00,
2013-08-25 02:50:00,63.3,37.2,29.74,WSW,243,11.5,11.5,38,0.00,OVC,,0.00,WeatherDisplay:10.37,2013-08-25 09:50:00,
2013-08-25 02:55:00,63.8,36.3,29.74,WSW,245,11.5,11.5,36,0.00,OVC,,0.00,WeatherDisplay:10.37,2013-08-25 09:55:00,
2013-08-25 03:00:00,63.2,35.1,29.73,WSW,240,12.7,12.7,35,0.00,OVC,,0.00,WeatherDisplay:10.37,2013-08-25 10:00:00,
2013-08-25 03:05:00,62.1,34.8,29.73,WSW,237,11.5,11.5,36,0.00,OVC,,0.00,WeatherDisplay:10.37,2013-08-25 10:05:00,
2013-08-25 03:10:00,61.2,35.4,29.73,WSW,242,10.4,10.4,38,0.00,OVC,,0.00,WeatherDisplay:10.37,2013-08-25 10:10:00,
2013-08-25 03:15:00,61.8,36.6,29.73,WSW,253,9.2,9.2,39,0.00,OVC,,0.00,WeatherDisplay:10.37,2013-08-25 10:15:00,
2013-08-25 03:20:00,62.8,37.5,29.74,West,264,11.5,11.5,39,0.00,OVC,,0.00,WeatherDisplay:10.37,2013-08-25 10:20:00,
2013-08-25 03:25:00,64.9,40.0,29.74,West,273,11.5,11.5,40,0.00,OVC,,0.00,WeatherDisplay:10.37,2013-08-25 10:25:00,
2013-08-25 03:30:00,64.7,38.5,29.74,West,261,9.2,9.2,38,0.00,OVC,,0.00,WeatherDisplay:10.37,2013-08-25 10:30:00,
2013-08-25 03:35:00,64.5,39.0,29.74,WSW,257,8.1,8.1,39,0.00,OVC,,0.00,WeatherDisplay:10.37,2013-08-25 10:35:00,
2013-08-25 03:40:00,64.2,40.0,29.74,WSW,253,9.2,9.2,41,0.00,OVC,,0.00,WeatherDisplay:10.37,2013-08-25 10:40:00,
2013-08-25 03:45:00,64.0,39.8,29.74,WSW,250,11.5,11.5,41,0.00,OVC,,0.00,WeatherDisplay:10.37,2013-08-25 10:45:00,
2013-08-25 03:50:00,64.1,38.6,29.74,WSW,243,10.4,10.4,39,0.00,OVC,,0.00,WeatherDisplay:10.37,2013-08-25 10:50:00,
2013-08-25 03:55:00,64.2,38.7,29.74,WSW,242,11.5,11.5,39,0.00,OVC,,0.00,WeatherDisplay:10.37,2013-08-25 10:55:00,
2013-08-25 04:00:00,64.6,39.1,29.74,WSW,244,8.1,8.1,39,0.00,OVC,,0.00,WeatherDisplay:10.37,2013-08-25 11:00:00,
2013-08-25 04:05:00,64.7,39.2,29.74,WSW,249,9.2,9.2,39,0.00,OVC,,0.00,WeatherDisplay:10.37,2013-08-25 11:05:00,
2013-08-25 04:10:00,64.6,38.4,29.74,SW,236,8.1,8.1,38,0.00,OVC,,0.00,WeatherDisplay:10.37,2013-08-25 11:10:00,
2013-08-25 04:15:00,63.9,37.8,29.74,SSW,211,6.9,6.9,38,0.00,OVC,,0.00,WeatherDisplay:10.37,2013-08-25 11:15:00,
2013-08-25 04:20:00,62.3,37.7,29.74,SW,217,10.4,10.4,40,0.00,OVC,,0.00,WeatherDisplay:10.37,2013-08-25 11:20:00,
2013-08-25 04:25:00,61.0,37.1,29.74,SSW,196,8.1,8.1,41,0.00,OVC,,0.00,WeatherDisplay:10.37,2013-08-25 11:25:00,
2013-08-25 04:30:00,60.0,37.4,29.74,SW,224,11.5,11.5,43,0.00,OVC,,0.00,WeatherDisplay:10.37,2013-08-25 11:30:00,
2013-08-25 04:35:00,60.5,36.0,29.75,SW,229,9.2,9.2,40,0.00,OVC,,0.00,WeatherDisplay:10.37,2013-08-25 11:35:00,
2013-08-25 04:40:00,60.3,34.6,29.75,SW,219,8.1,8.1,38,0.00,OVC,,0.00,WeatherDisplay:10.37,2013-08-25 11:40:00,
2013-08-25 04:45:00,59.7,34.7,29.75,SW,224,7.0,7.0,39,0.00,OVC,,0.00,WeatherDisplay:10.37,2013-08-25 11:45:00,
2013-08-25 04:50:00,59.4,33.8,29.75,SSW,209,8.1,8.1,38,0.00,OVC,,0.00,WeatherDisplay:10.37,2013-08-25 11:50:00,
2013-08-25 04:55:00,58.3,32.8,29.75,SSW,192,6.9,6.9,38,0.00,OVC,,0.00,WeatherDisplay:10.37,2013-08-25 11:55:00,
2013-08-25 05:00:00,57.9,33.7,29.76,ENE,69,10.4,10.4,40,0.00,OVC,,0.00,WeatherDisplay:10.37,2013-08-25 12:00:00,
2013-08-25 05:05:00,59.6,34.6,29.76,East,92,5.0,5.0,39,0.00,CLR,,0.00,WeatherDisplay:10.37,2013-08-25 12:05:00,
2013-08-25 05:10:00,60.6,35.5,29.76,ESE,123,4.6,4.6,39,0.00,OVC,,0.00,WeatherDisplay:10.37,2013-08-25 12:10:00,
2013-08-25 05:15:00,60.3,35.9,29.76,ESE,123,0.0,0.0,40,0.00,OVC,,0.00,WeatherDisplay:10.37,2013-08-25 12:15:00,
2013-08-25 05:20:00,59.0,36.5,29.76,NNW,333,3.5,3.5,43,0.00,OVC,,0.00,WeatherDisplay:10.37,2013-08-25 12:20:00,
2013-08-25 05:25:00,58.2,36.9,29.77,North,5,3.5,3.5,45,0.00,OVC,,0.00,WeatherDisplay:10.37,2013-08-25 12:25:00,
2013-08-25 05:30:00,58.1,37.4,29.77,North,5,2.3,2.3,46,0.00,OVC,,0.00,WeatherDisplay:10.37,2013-08-25 12:30:00,
2013-08-25 05:35:00,58.0,36.8,29.77,North,5,3.5,3.5,45,0.00,OVC,,0.00,WeatherDisplay:10.37,2013-08-25 12:35:00,
2013-08-25 05:40:00,57.6,37.0,29.77,North,5,2.3,2.3,46,0.00,OVC,,0.00,WeatherDisplay:10.37,2013-08-25 12:40:00,
2013-08-25 05:45:00,57.4,37.9,29.77,North,5,3.5,3.5,48,0.00,OVC,,0.00,WeatherDisplay:10.37,2013-08-25 12:45:00,
2013-08-25 05:50:00,57.8,38.2,29.77,North,5,2.3,2.3,48,0.00,OVC,,0.00,WeatherDisplay:10.37,2013-08-25 12:50:00,
2013-08-25 05:55:00,58.2,38.1,29.77,North,5,0.0,0.0,47,0.00,OVC,,0.00,WeatherDisplay:10.37,2013-08-25 12:55:00,
2013-08-25 06:00:00,58.7,38.0,29.77,North,5,1.0,1.0,46,0.00,CLR,,0.00,WeatherDisplay:10.37,2013-08-25 13:00:00,
2013-08-25 06:05:00,58.9,37.0,29.77,North,5,0.0,0.0,44,0.00,OVC,,0.00,WeatherDisplay:10.37,2013-08-25 13:05:00,
2013-08-25 06:10:00,59.0,37.7,29.77,North,5,0.0,0.0,45,0.00,OVC,,0.00,WeatherDisplay:10.37,2013-08-25 13:10:00,
2013-08-25 06:15:00,58.2,36.4,29.77,North,355,1.1,1.1,44,0.00,OVC,,0.00,WeatherDisplay:10.37,2013-08-25 13:15:00,
2013-08-25 06:20:00,58.3,35.9,29.78,North,355,1.1,1.1,43,0.00,OVC,,0.00,WeatherDisplay:10.37,2013-08-25 13:20:00,
2013-08-25 06:25:00,57.8,33.6,29.78,NE,53,5.0,5.0,40,0.00,OVC,,0.00,WeatherDisplay:10.37,2013-08-25 13:25:00,
2013-08-25 06:30:00,55.4,34.9,29.78,NE,53,3.5,3.5,46,0.00,OVC,,0.00,WeatherDisplay:10.37,2013-08-25 13:30:00,
2013-08-25 06:35:00,55.9,37.5,29.78,NE,53,3.5,3.5,50,0.00,OVC,,0.00,WeatherDisplay:10.37,2013-08-25 13:35:00,
2013-08-25 06:40:00,57.1,38.1,29.79,NE,53,0.0,0.0,49,0.00,OVC,,0.00,WeatherDisplay:10.37,2013-08-25 13:40:00,
2013-08-25 06:45:00,56.9,35.8,29.79,NE,53,1.1,1.1,45,0.00,OVC,,0.00,WeatherDisplay:10.37,2013-08-25 13:45:00,
2013-08-25 06:50:00,56.0,36.0,29.79,NE,53,0.0,0.0,47,0.00,OVC,,0.00,WeatherDisplay:10.37,2013-08-25 13:50:00,
2013-08-25 06:55:00,55.6,35.7,29.79,SW,234,4.0,4.0,47,0.00,OVC,,0.00,WeatherDisplay:10.37,2013-08-25 13:55:00,
2013-08-25 07:00:00,56.6,36.0,29.79,SW,234,4.6,4.6,46,0.00,OVC,,0.00,WeatherDisplay:10.37,2013-08-25 14:00:00,
2013-08-25 07:05:00,59.0,37.7,29.79,WSW,249,5.0,5.0,45,0.00,OVC,,0.00,WeatherDisplay:10.37,2013-08-25 14:05:00,
2013-08-25 07:10:00,60.3,38.9,29.80,WSW,249,3.5,3.5,45,0.00,OVC,,0.00,WeatherDisplay:10.37,2013-08-25 14:10:00,
2013-08-25 07:15:00,60.5,38.5,29.80,SW,236,4.0,4.0,44,0.00,OVC,,0.00,WeatherDisplay:10.37,2013-08-25 14:15:00,
2013-08-25 07:20:00,60.8,39.9,29.80,WSW,245,4.0,4.0,46,0.00,OVC,,0.00,WeatherDisplay:10.37,2013-08-25 14:20:00,
2013-08-25 07:25:00,61.4,40.4,29.80,SW,230,5.8,5.8,46,0.00,OVC,,0.00,WeatherDisplay:10.37,2013-08-25 14:25:00,
2013-08-25 07:30:00,62.1,41.1,29.80,SW,231,5.8,5.8,46,0.00,CLR,,0.00,WeatherDisplay:10.37,2013-08-25 14:30:00,
2013-08-25 07:35:00,62.6,40.9,29.80,SW,222,6.0,6.0,45,0.00,OVC,,0.00,WeatherDisplay:10.37,2013-08-25 14:35:00,
2013-08-25 07:40:00,62.7,39.9,29.80,SW,232,10.4,10.4,43,0.00,OVC,,0.00,WeatherDisplay:10.37,2013-08-25 14:40:00,
2013-08-25 07:45:00,62.8,38.1,29.80,SW,227,10.4,10.4,40,0.00,OVC,,0.00,WeatherDisplay:10.37,2013-08-25 14:45:00,
2013-08-25 07:50:00,63.3,37.2,29.80,SW,231,9.2,9.2,38,0.00,OVC,,0.00,WeatherDisplay:10.37,2013-08-25 14:50:00,
2013-08-25 07:55:00,63.9,37.1,29.80,SW,225,5.8,5.8,37,0.00,OVC,,0.00,WeatherDisplay:10.37,2013-08-25 14:55:00,
2013-08-25 08:00:00,64.6,36.3,29.81,SW,221,7.0,7.0,35,0.00,OVC,,0.00,WeatherDisplay:10.37,2013-08-25 15:00:00,
2013-08-25 08:05:00,65.6,36.5,29.81,SW,229,6.9,6.9,34,0.00,OVC,,0.00,WeatherDisplay:10.37,2013-08-25 15:05:00,
2013-08-25 08:10:00,66.7,37.4,29.81,SSW,208,5.8,5.8,34,0.00,OVC,,0.00,WeatherDisplay:10.37,2013-08-25 15:10:00,
2013-08-25 08:15:00,67.7,37.5,29.81,SW,217,4.6,4.8,33,0.00,OVC,,0.00,WeatherDisplay:10.37,2013-08-25 15:15:00,
2013-08-25 08:20:00,68.3,38.1,29.80,SW,225,4.6,4.6,33,0.00,OVC,,0.00,WeatherDisplay:10.37,2013-08-25 15:20:00,
2013-08-25 08:25:00,68.9,38.6,29.80,WSW,239,3.5,3.5,33,0.00,OVC,,0.00,WeatherDisplay:10.37,2013-08-25 15:25:00,
2013-08-25 08:30:00,69.3,38.9,29.80,WSW,255,2.3,2.3,33,0.00,OVC,,0.00,WeatherDisplay:10.37,2013-08-25 15:30:00,
2013-08-25 08:35:00,69.9,39.5,29.80,SW,217,1.1,1.1,33,0.00,OVC,,0.00,WeatherDisplay:10.37,2013-08-25 15:35:00,
2013-08-25 08:40:00,70.9,39.6,29.80,ESE,118,1.1,0.0,32,0.00,OVC,,0.00,WeatherDisplay:10.37,2013-08-25 15:40:00,
2013-08-25 08:45:00,71.8,38.7,29.80,ESE,118,0.0,0.0,30,0.00,OVC,,0.00,WeatherDisplay:10.37,2013-08-25 15:45:00,
2013-08-25 08:50:00,72.6,38.5,29.81,South,188,2.3,2.3,29,0.00,CLR,,0.00,WeatherDisplay:10.37,2013-08-25 15:50:00,
2013-08-25 08:55:00,72.9,38.8,29.81,SSW,209,5.0,5.0,29,0.00,OVC,,0.00,WeatherDisplay:10.37,2013-08-25 15:55:00,
2013-08-25 09:00:00,73.3,38.2,29.81,SSE,164,6.9,6.9,28,0.00,OVC,,0.00,WeatherDisplay:10.37,2013-08-25 16:00:00,
2013-08-25 09:05:00,73.8,37.7,29.81,SE,142,5.0,5.0,27,0.00,OVC,,0.00,WeatherDisplay:10.37,2013-08-25 16:05:00,
2013-08-25 09:10:00,74.2,37.1,29.81,South,180,3.5,3.5,26,0.00,OVC,,0.00,WeatherDisplay:10.37,2013-08-25 16:10:00,
2013-08-25 09:15:00,74.5,37.3,29.81,SSE,162,4.0,4.0,26,0.00,OVC,,0.00,WeatherDisplay:10.37,2013-08-25 16:15:00,
2013-08-25 09:20:00,75.1,37.9,29.81,SSE,155,2.3,2.3,26,0.00,OVC,,0.00,WeatherDisplay:10.37,2013-08-25 16:20:00,
2013-08-25 09:25:00,75.6,38.3,29.81,SSW,201,2.0,2.0,26,0.00,OVC,,0.00,WeatherDisplay:10.37,2013-08-25 16:25:00,
2013-08-25 09:30:00,76.2,38.8,29.81,SE,130,5.8,5.8,26,0.00,OVC,,0.00,WeatherDisplay:10.37,2013-08-25 16:30:00,
2013-08-25 09:35:00,76.7,40.2,29.81,SE,146,3.5,3.5,27,0.00,OVC,,0.00,WeatherDisplay:10.37,2013-08-25 16:35:00,
2013-08-25 09:40:00,76.9,38.4,29.81,WSW,244,5.8,5.8,25,0.00,OVC,,0.00,WeatherDisplay:10.37,2013-08-25 16:40:00,
2013-08-25 09:45:00,77.3,37.7,29.82,SSE,150,3.5,3.5,24,0.00,OVC,,0.00,WeatherDisplay:10.37,2013-08-25 16:45:00,
2013-08-25 09:50:00,78.1,37.3,29.81,West,260,4.6,4.6,23,0.00,OVC,,0.00,WeatherDisplay:10.37,2013-08-25 16:50:00,
2013-08-25 09:55:00,78.5,35.3,29.81,SW,222,4.6,4.6,21,0.00,OVC,,0.00,WeatherDisplay:10.37,2013-08-25 16:55:00,
2013-08-25 10:00:00,80.0,35.3,29.81,North,355,3.5,3.5,20,0.00,OVC,,0.00,WeatherDisplay:10.37,2013-08-25 17:00:00,
2013-08-25 10:05:00,82.0,35.7,29.81,South,188,2.3,2.3,19,0.00,OVC,,0.00,WeatherDisplay:10.37,2013-08-25 17:05:00,
2013-08-25 10:10:00,81.8,36.8,29.81,ENE,63,1.1,0.0,20,0.00,OVC,,0.00,WeatherDisplay:10.37,2013-08-25 17:10:00,
2013-08-25 10:15:00,82.6,37.5,29.81,NE,55,1.1,1.1,20,0.00,OVC,,0.00,WeatherDisplay:10.37,2013-08-25 17:15:00,
2013-08-25 10:20:00,83.2,36.6,29.81,NE,55,0.0,0.0,19,0.00,OVC,,0.00,WeatherDisplay:10.37,2013-08-25 17:20:00,
2013-08-25 10:25:00,83.3,36.7,29.81,NNE,16,1.0,0.0,19,0.00,OVC,,0.00,WeatherDisplay:10.37,2013-08-25 17:25:00,
2013-08-25 10:30:00,83.8,38.4,29.81,NNE,23,1.1,1.1,20,0.00,OVC,,0.00,WeatherDisplay:10.37,2013-08-25 17:30:00,
2013-08-25 10:35:00,83.9,37.2,29.80,SE,136,1.1,1.1,19,0.00,OVC,,0.00,WeatherDisplay:10.37,2013-08-25 17:35:00,
2013-08-25 10:40:00,83.4,36.8,29.80,WSW,246,0.0,0.0,19,0.00,OVC,,0.00,WeatherDisplay:10.37,2013-08-25 17:40:00,
2013-08-25 10:45:00,85.5,39.8,29.80,NNE,24,2.3,2.3,20,0.00,OVC,,0.00,WeatherDisplay:10.37,2013-08-25 17:45:00,
2013-08-25 10:50:00,86.3,39.2,29.80,North,360,2.3,2.3,19,0.00,OVC,,0.00,WeatherDisplay:10.37,2013-08-25 17:50:00,
2013-08-25 10:55:00,86.6,39.4,29.80,NNW,327,2.3,2.3,19,0.00,OVC,,0.00,WeatherDisplay:10.37,2013-08-25 17:55:00,
2013-08-25 11:00:00,87.1,42.4,29.80,NNE,26,5.0,5.0,21,0.00,OVC,,0.00,WeatherDisplay:10.37,2013-08-25 18:00:00,
2013-08-25 11:05:00,87.2,44.9,29.80,NNE,13,7.0,7.0,23,0.00,CLR,,0.00,WeatherDisplay:10.37,2013-08-25 18:05:00,
2013-08-25 11:10:00,87.7,45.3,29.79,NNE,18,4.6,4.6,23,0.00,CLR,,0.00,WeatherDisplay:10.37,2013-08-25 18:10:00,
2013-08-25 11:15:00,87.2,44.9,29.79,ENE,76,3.5,3.5,23,0.00,CLR,,0.00,WeatherDisplay:10.37,2013-08-25 18:15:00,
2013-08-25 11:20:00,86.9,45.8,29.79,NE,37,11.5,11.5,24,0.00,CLR,,0.00,WeatherDisplay:10.37,2013-08-25 18:20:00,
2013-08-25 11:25:00,87.7,45.3,29.79,NE,39,10.4,10.4,23,0.00,CLR,,0.00,WeatherDisplay:10.37,2013-08-25 18:25:00,
2013-08-25 11:30:00,88.4,47.0,29.79,NNE,20,9.2,9.2,24,0.00,CLR,,0.00,WeatherDisplay:10.37,2013-08-25 18:30:00,
2013-08-25 11:35:00,88.5,47.1,29.78,NE,46,11.5,11.5,24,0.00,CLR,,0.00,WeatherDisplay:10.37,2013-08-25 18:35:00,
2013-08-25 11:40:00,87.5,46.3,29.78,East,84,11.5,11.5,24,0.00,CLR,,0.00,WeatherDisplay:10.37,2013-08-25 18:40:00,
2013-08-25 11:45:00,86.8,45.7,29.78,SE,130,11.5,11.5,24,0.00,CLR,,0.00,WeatherDisplay:10.37,2013-08-25 18:45:00,
2013-08-25 11:50:00,85.8,43.7,29.78,SSE,163,3.5,3.5,23,0.00,CLR,,0.00,WeatherDisplay:10.37,2013-08-25 18:50:00,
2013-08-25 11:55:00,86.9,44.6,29.78,NNW,331,4.6,4.6,23,0.00,CLR,,0.00,WeatherDisplay:10.37,2013-08-25 18:55:00,
2013-08-25 12:00:00,88.3,43.4,29.78,NNE,31,5.8,5.8,21,0.00,CLR,,0.00,WeatherDisplay:10.37,2013-08-25 19:00:00,
2013-08-25 12:05:00,88.6,42.4,29.78,SE,136,10.4,10.4,20,0.00,CLR,,0.00,WeatherDisplay:10.37,2013-08-25 19:05:00,
2013-08-25 12:10:00,87.7,41.6,29.77,NNW,348,3.5,3.5,20,0.00,CLR,,0.00,WeatherDisplay:10.37,2013-08-25 19:10:00,
2013-08-25 12:15:00,87.6,41.6,29.77,South,190,3.5,3.5,20,0.00,CLR,,0.00,WeatherDisplay:10.37,2013-08-25 19:15:00,
2013-08-25 12:20:00,87.4,40.1,29.77,WNW,286,3.5,3.5,19,0.00,CLR,,0.00,WeatherDisplay:10.37,2013-08-25 19:20:00,
2013-08-25 12:25:00,87.7,40.3,29.77,ESE,113,6.9,6.9,19,0.00,CLR,,0.00,WeatherDisplay:10.37,2013-08-25 19:25:00,
2013-08-25 12:30:00,88.1,40.6,29.77,West,259,5.8,5.8,19,0.00,CLR,,0.00,WeatherDisplay:10.37,2013-08-25 19:30:00,
2013-08-25 12:35:00,88.2,39.3,29.77,South,178,8.0,8.0,18,0.00,CLR,,0.00,WeatherDisplay:10.37,2013-08-25 19:35:00,
2013-08-25 12:40:00,88.5,39.6,29.76,SE,146,16.1,16.1,18,0.00,CLR,,0.00,WeatherDisplay:10.37,2013-08-25 19:40:00,
2013-08-25 12:45:00,89.1,41.5,29.76,NNE,33,2.3,2.3,19,0.00,CLR,,0.00,WeatherDisplay:10.37,2013-08-25 19:45:00,
2013-08-25 12:50:00,89.3,40.2,29.76,SE,136,9.2,9.2,18,0.00,CLR,,0.00,WeatherDisplay:10.37,2013-08-25 19:50:00,
2013-08-25 12:55:00,89.7,40.6,29.76,WNW,288,5.0,5.0,18,0.00,CLR,,0.00,WeatherDisplay:10.37,2013-08-25 19:55:00,
2013-08-25 13:00:00,89.2,40.1,29.76,SE,140,8.0,8.0,18,0.00,CLR,,0.00,WeatherDisplay:10.37,2013-08-25 20:00:00,
2013-08-25 13:05:00,89.6,41.9,29.76,SE,135,2.3,2.3,19,0.00,CLR,,0.00,WeatherDisplay:10.37,2013-08-25 20:05:00,
2013-08-25 13:10:00,90.9,41.5,29.76,East,91,9.2,9.2,18,0.00,CLR,,0.00,WeatherDisplay:10.37,2013-08-25 20:10:00,
2013-08-25 13:15:00,90.3,39.6,29.76,ENE,77,15.0,15.0,17,0.00,CLR,,0.00,WeatherDisplay:10.37,2013-08-25 20:15:00,
2013-08-25 13:20:00,89.6,40.5,29.76,SSE,167,10.4,10.4,18,0.00,CLR,,0.00,WeatherDisplay:10.37,2013-08-25 20:20:00,
2013-08-25 13:25:00,90.0,39.3,29.76,South,186,6.9,6.9,17,0.00,CLR,,0.00,WeatherDisplay:10.37,2013-08-25 20:25:00,
2013-08-25 13:30:00,90.3,38.0,29.75,SSW,192,15.0,15.0,16,0.00,CLR,,0.00,WeatherDisplay:10.37,2013-08-25 20:30:00,
2013-08-25 13:35:00,90.3,39.6,29.76,South,182,20.7,20.7,17,0.00,CLR,,0.00,WeatherDisplay:10.37,2013-08-25 20:35:00,
2013-08-25 13:40:00,90.9,40.1,29.75,WNW,293,3.5,3.5,17,0.00,CLR,,0.00,WeatherDisplay:10.37,2013-08-25 20:40:00,
2013-08-25 13:45:00,92.4,39.7,29.75,SSE,156,3.5,3.5,16,0.00,CLR,,0.00,WeatherDisplay:10.37,2013-08-25 20:45:00,
2013-08-25 13:50:00,91.9,39.3,29.74,SSE,167,3.5,3.5,16,0.00,CLR,,0.00,WeatherDisplay:10.37,2013-08-25 20:50:00,
2013-08-25 13:55:00,91.5,37.3,29.74,SW,224,15.0,15.0,15,0.00,CLR,,0.00,WeatherDisplay:10.37,2013-08-25 20:55:00,
2013-08-25 14:00:00,92.2,39.5,29.74,SE,133,18.4,18.4,16,0.00,CLR,,0.00,WeatherDisplay:10.37,2013-08-25 21:00:00,
2013-08-25 14:05:00,92.3,34.3,29.74,South,188,21.9,21.9,13,0.00,CLR,,0.00,WeatherDisplay:10.37,2013-08-25 21:05:00,
2013-08-25 14:10:00,91.9,35.9,29.74,SSE,148,26.5,26.5,14,0.00,CLR,,0.00,WeatherDisplay:10.37,2013-08-25 21:10:00,
2013-08-25 14:15:00,91.5,37.3,29.74,ESE,109,14.0,14.0,15,0.00,CLR,,0.00,WeatherDisplay:10.37,2013-08-25 21:15:00,
2013-08-25 14:20:00,91.9,35.9,29.74,South,177,15.0,15.0,14,0.00,CLR,,0.00,WeatherDisplay:10.37,2013-08-25 21:20:00,
2013-08-25 14:25:00,92.0,34.1,29.74,SSW,206,18.4,18.4,13,0.00,CLR,,0.00,WeatherDisplay:10.37,2013-08-25 21:25:00,
2013-08-25 14:30:00,91.7,31.9,29.74,South,182,20.7,20.7,12,0.00,CLR,,0.00,WeatherDisplay:10.37,2013-08-25 21:30:00,
2013-08-25 14:35:00,91.8,29.8,29.74,South,180,16.1,16.1,11,0.00,CLR,,0.00,WeatherDisplay:10.37,2013-08-25 21:35:00,
2013-08-25 14:40:00,92.4,30.3,29.74,South,191,23.0,23.0,11,0.00,CLR,,0.00,WeatherDisplay:10.37,2013-08-25 21:40:00,
2013-08-25 14:45:00,92.8,32.7,29.73,SSE,148,20.0,20.0,12,0.00,CLR,,0.00,WeatherDisplay:10.37,2013-08-25 21:45:00,
2013-08-25 14:50:00,92.4,30.3,29.73,SSE,153,15.0,15.0,11,0.00,CLR,,0.00,WeatherDisplay:10.37,2013-08-25 21:50:00,
2013-08-25 14:55:00,92.6,32.6,29.73,SSE,163,19.6,19.6,12,0.00,CLR,,0.00,WeatherDisplay:10.37,2013-08-25 21:55:00,
2013-08-25 15:00:00,93.7,28.9,29.73,SSE,167,19.6,19.6,10,0.00,CLR,,0.00,WeatherDisplay:10.37,2013-08-25 22:00:00,
2013-08-25 15:05:00,93.3,26.0,29.73,South,182,26.5,26.5,9,0.00,CLR,,0.00,WeatherDisplay:10.37,2013-08-25 22:05:00,
2013-08-25 15:10:00,92.5,25.4,29.73,SSE,148,26.5,26.5,9,0.00,CLR,,0.00,WeatherDisplay:10.37,2013-08-25 22:10:00,
2013-08-25 15:15:00,92.3,25.3,29.73,SSW,195,23.0,23.0,9,0.00,CLR,,0.00,WeatherDisplay:10.37,2013-08-25 22:15:00,
2013-08-25 15:20:00,92.8,22.8,29.73,South,185,27.6,27.6,8,0.00,CLR,,0.00,WeatherDisplay:10.37,2013-08-25 22:20:00,
2013-08-25 15:25:00,93.1,28.5,29.73,South,184,24.2,24.2,10,0.00,CLR,,0.00,WeatherDisplay:10.37,2013-08-25 22:25:00,
2013-08-25 15:30:00,93.0,28.4,29.72,SSE,167,31.1,31.1,10,0.00,CLR,,0.00,WeatherDisplay:10.37,2013-08-25 22:30:00,
2013-08-25 15:35:00,92.4,27.9,29.72,SSE,149,23.0,23.0,10,0.00,CLR,,0.00,WeatherDisplay:10.37,2013-08-25 22:35:00,
2013-08-25 15:40:00,91.7,29.7,29.72,SSE,166,26.5,26.5,11,0.00,CLR,,0.00,WeatherDisplay:10.37,2013-08-25 22:40:00,
2013-08-25 15:45:00,92.3,32.3,29.72,SSE,151,23.0,23.0,12,0.00,CLR,,0.00,WeatherDisplay:10.37,2013-08-25 22:45:00,
2013-08-25 15:50:00,92.4,32.4,29.72,South,180,25.3,25.3,12,0.00,CLR,,0.00,WeatherDisplay:10.37,2013-08-25 22:50:00,
2013-08-25 15:55:00,92.9,32.8,29.72,South,185,19.6,19.6,12,0.00,CLR,,0.00,WeatherDisplay:10.37,2013-08-25 22:55:00,
2013-08-25 16:00:00,92.7,32.6,29.72,South,172,19.6,19.6,12,0.00,CLR,,0.00,WeatherDisplay:10.37,2013-08-25 23:00:00,
2013-08-25 16:05:00,92.2,32.3,29.72,South,186,20.7,20.7,12,0.00,CLR,,0.00,WeatherDisplay:10.37,2013-08-25 23:05:00,
2013-08-25 16:10:00,92.6,32.6,29.71,SSE,152,23.0,23.0,12,0.00,CLR,,0.00,WeatherDisplay:10.37,2013-08-25 23:10:00,
2013-08-25 16:15:00,91.8,32.0,29.71,SE,124,23.0,23.0,12,0.00,CLR,,0.00,WeatherDisplay:10.37,2013-08-25 23:15:00,
2013-08-25 16:20:00,92.4,32.4,29.71,South,178,22.0,22.0,12,0.00,CLR,,0.00,WeatherDisplay:10.37,2013-08-25 23:20:00,
2013-08-25 16:25:00,91.6,31.8,29.71,SE,144,19.6,19.6,12,0.00,CLR,,0.00,WeatherDisplay:10.37,2013-08-25 23:25:00,
2013-08-25 16:30:00,91.7,31.9,29.71,SE,128,26.5,26.5,12,0.00,CLR,,0.00,WeatherDisplay:10.37,2013-08-25 23:30:00,
2013-08-25 16:35:00,92.0,34.1,29.70,SE,140,21.9,21.9,13,0.00,CLR,,0.00,WeatherDisplay:10.37,2013-08-25 23:35:00,
2013-08-25 16:40:00,92.0,34.1,29.70,SSE,158,21.0,21.0,13,0.00,CLR,,0.00,WeatherDisplay:10.37,2013-08-25 23:40:00,
2013-08-25 16:45:00,91.5,35.6,29.70,SSE,161,24.2,24.2,14,0.00,CLR,,0.00,WeatherDisplay:10.37,2013-08-25 23:45:00,
2013-08-25 16:50:00,91.5,33.7,29.70,SSE,148,24.2,24.2,13,0.00,CLR,,0.00,WeatherDisplay:10.37,2013-08-25 23:50:00,
2013-08-25 16:55:00,91.7,35.7,29.70,SSE,152,21.9,21.9,14,0.00,CLR,,0.00,WeatherDisplay:10.37,2013-08-25 23:55:00,
2013-08-25 17:00:00,91.6,35.7,29.70,SSE,150,20.0,20.0,14,0.00,CLR,,0.00,WeatherDisplay:10.37,2013-08-26 00:00:00,
2013-08-25 17:05:00,91.7,33.9,29.70,SSE,155,21.9,21.9,13,0.00,CLR,,0.00,WeatherDisplay:10.37,2013-08-26 00:05:00,
2013-08-25 17:10:00,91.6,33.8,29.70,SSE,154,25.3,25.3,13,0.00,CLR,,0.00,WeatherDisplay:10.37,2013-08-26 00:10:00,
2013-08-25 17:15:00,91.4,37.2,29.70,SSE,163,24.2,24.2,15,0.00,CLR,,0.00,WeatherDisplay:10.37,2013-08-26 00:15:00,
2013-08-25 17:20:00,91.1,33.4,29.70,SSE,149,25.3,25.3,13,0.00,CLR,,0.00,WeatherDisplay:10.37,2013-08-26 00:20:00,
2013-08-25 17:25:00,91.0,35.2,29.70,SE,128,25.3,25.3,14,0.00,CLR,,0.00,WeatherDisplay:10.37,2013-08-26 00:25:00,
2013-08-25 17:30:00,90.5,36.5,29.70,SSE,147,25.3,25.3,15,0.00,CLR,,0.00,WeatherDisplay:10.37,2013-08-26 00:30:00,
2013-08-25 17:35:00,90.6,36.6,29.70,SSE,150,21.9,21.9,15,0.00,CLR,,0.00,WeatherDisplay:10.37,2013-08-26 00:35:00,
2013-08-25 17:40:00,90.2,36.3,29.70,SSE,150,24.2,24.2,15,0.00,CLR,,0.00,WeatherDisplay:10.37,2013-08-26 00:40:00,
2013-08-25 17:45:00,90.1,36.2,29.70,SSE,148,26.5,26.5,15,0.00,CLR,,0.00,WeatherDisplay:10.37,2013-08-26 00:45:00,
2013-08-25 17:50:00,90.0,34.4,29.70,SE,141,26.5,26.5,14,0.00,CLR,,0.00,WeatherDisplay:10.37,2013-08-26 00:50:00,
2013-08-25 17:55:00,89.7,35.9,29.70,SSE,147,29.9,29.9,15,0.00,CLR,,0.00,WeatherDisplay:10.37,2013-08-26 00:55:00,
2013-08-25 18:00:00,89.4,38.8,29.70,SSE,158,24.2,24.2,17,0.00,CLR,,0.00,WeatherDisplay:10.37,2013-08-26 01:00:00,
2013-08-25 18:05:00,89.2,37.1,29.70,SSE,153,24.2,24.2,16,0.00,CLR,,0.00,WeatherDisplay:10.37,2013-08-26 01:05:00,
2013-08-25 18:10:00,89.0,38.5,29.70,SSE,165,23.0,23.0,17,0.00,CLR,,0.00,WeatherDisplay:10.37,2013-08-26 01:10:00,
2013-08-25 18:15:00,88.5,36.6,29.70,SSE,151,26.5,26.5,16,0.00,CLR,,0.00,WeatherDisplay:10.37,2013-08-26 01:15:00,
2013-08-25 18:20:00,88.3,38.0,29.70,South,182,20.7,20.7,17,0.00,CLR,,0.00,WeatherDisplay:10.37,2013-08-26 01:20:00,
2013-08-25 18:25:00,87.8,39.0,29.70,SSE,155,25.3,25.3,18,0.00,CLR,,0.00,WeatherDisplay:10.37,2013-08-26 01:25:00,
2013-08-25 18:30:00,87.6,38.8,29.70,SSE,152,26.5,26.5,18,0.00,CLR,,0.00,WeatherDisplay:10.37,2013-08-26 01:30:00,
2013-08-25 18:35:00,87.2,39.9,29.71,SSE,167,26.0,26.0,19,0.00,CLR,,0.00,WeatherDisplay:10.37,2013-08-26 01:35:00,
2013-08-25 18:40:00,86.8,38.2,29.71,SSE,157,25.3,25.3,18,0.00,CLR,,0.00,WeatherDisplay:10.37,2013-08-26 01:40:00,
2013-08-25 18:45:00,86.5,38.0,29.71,SSE,153,23.0,23.0,18,0.00,CLR,,0.00,WeatherDisplay:10.37,2013-08-26 01:45:00,
2013-08-25 18:50:00,86.1,37.6,29.71,SSE,159,25.3,25.3,18,0.00,CLR,,0.00,WeatherDisplay:10.37,2013-08-26 01:50:00,
2013-08-25 18:55:00,85.7,37.3,29.72,SSW,194,23.0,23.0,18,0.00,CLR,,0.00,WeatherDisplay:10.37,2013-08-26 01:55:00,
2013-08-25 19:00:00,85.4,38.4,29.72,SSE,150,21.9,21.9,19,0.00,CLR,,0.00,WeatherDisplay:10.37,2013-08-26 02:00:00,
2013-08-25 19:05:00,84.9,38.0,29.73,SSE,153,21.9,21.9,19,0.00,CLR,,0.00,WeatherDisplay:10.37,2013-08-26 02:05:00,
2013-08-25 19:10:00,84.5,40.3,29.72,SSE,155,16.1,16.1,21,0.00,CLR,,0.00,WeatherDisplay:10.37,2013-08-26 02:10:00,
2013-08-25 19:15:00,84.4,40.2,29.73,South,171,22.0,22.0,21,0.00,CLR,,0.00,WeatherDisplay:10.37,2013-08-26 02:15:00,
2013-08-25 19:20:00,84.0,41.1,29.74,SSE,157,18.4,18.4,22,0.00,CLR,,0.00,WeatherDisplay:10.37,2013-08-26 02:20:00,
2013-08-25 19:25:00,83.4,40.6,29.74,South,173,19.6,19.6,22,0.00,CLR,,0.00,WeatherDisplay:10.37,2013-08-26 02:25:00,
2013-08-25 19:30:00,82.9,40.1,29.74,SE,136,16.1,16.1,22,0.00,CLR,,0.00,WeatherDisplay:10.37,2013-08-26 02:30:00,
2013-08-25 19:35:00,82.8,40.1,29.74,SSE,151,18.4,18.4,22,0.00,CLR,,0.00,WeatherDisplay:10.37,2013-08-26 02:35:00,
2013-08-25 19:40:00,82.3,40.8,29.74,South,184,19.6,19.6,23,0.00,CLR,,0.00,WeatherDisplay:10.37,2013-08-26 02:40:00,
2013-08-25 19:45:00,82.1,40.6,29.75,SSE,161,21.9,21.9,23,0.00,CLR,,0.00,WeatherDisplay:10.37,2013-08-26 02:45:00,
2013-08-25 19:50:00,82.1,40.6,29.75,SSE,161,19.6,19.6,23,0.00,CLR,,0.00,WeatherDisplay:10.37,2013-08-26 02:50:00,
2013-08-25 19:55:00,81.8,40.4,29.75,South,173,18.4,18.4,23,0.00,CLR,,0.00,WeatherDisplay:10.37,2013-08-26 02:55:00,
2013-08-25 20:00:00,81.5,41.2,29.76,South,183,15.0,15.0,24,0.00,CLR,,0.00,WeatherDisplay:10.37,2013-08-26 03:00:00,
2013-08-25 20:05:00,81.0,41.9,29.76,SSE,166,12.7,12.7,25,0.00,CLR,,0.00,WeatherDisplay:10.37,2013-08-26 03:05:00,
2013-08-25 20:10:00,80.2,42.2,29.76,South,171,13.0,13.0,26,0.00,CLR,,0.00,WeatherDisplay:10.37,2013-08-26 03:10:00,
2013-08-25 20:15:00,80.0,42.0,29.76,SE,146,15.0,15.0,26,0.00,CLR,,0.00,WeatherDisplay:10.37,2013-08-26 03:15:00,
2013-08-25 20:20:00,80.0,41.0,29.76,SSE,157,12.7,12.7,25,0.00,CLR,,0.00,WeatherDisplay:10.37,2013-08-26 03:20:00,
2013-08-25 20:25:00,79.7,40.8,29.76,South,170,15.0,15.0,25,0.00,CLR,,0.00,WeatherDisplay:10.37,2013-08-26 03:25:00,
2013-08-25 20:30:00,80.0,41.0,29.76,South,179,19.6,19.6,25,0.00,CLR,,0.00,WeatherDisplay:10.37,2013-08-26 03:30:00,
2013-08-25 20:35:00,80.1,40.0,29.77,SSE,159,16.1,16.1,24,0.00,CLR,,0.00,WeatherDisplay:10.37,2013-08-26 03:35:00,
2013-08-25 20:40:00,79.5,40.6,29.77,SSE,150,12.7,12.7,25,0.00,CLR,,0.00,WeatherDisplay:10.37,2013-08-26 03:40:00,
2013-08-25 20:45:00,78.8,40.0,29.77,South,182,11.5,11.5,25,0.00,CLR,,0.00,WeatherDisplay:10.37,2013-08-26 03:45:00,
2013-08-25 20:50:00,78.6,39.8,29.78,South,186,11.5,11.5,25,0.00,CLR,,0.00,WeatherDisplay:10.37,2013-08-26 03:50:00,
2013-08-25 20:55:00,78.0,39.3,29.77,South,188,10.0,10.0,25,0.00,CLR,,0.00,WeatherDisplay:10.37,2013-08-26 03:55:00,
2013-08-25 21:00:00,77.7,39.1,29.78,South,184,10.4,10.4,25,0.00,CLR,,0.00,WeatherDisplay:10.37,2013-08-26 04:00:00,
2013-08-25 21:01:00,77.6,39.0,29.78,SSE,167,10.4,10.4,25,0.00,CLR,,0.00,WeatherDisplay:10.37,2013-08-26 04:01:00,
2013-08-25 21:02:00,77.4,38.8,29.78,SSE,163,9.2,9.2,25,0.00,CLR,,0.00,WeatherDisplay:10.37,2013-08-26 04:02:00,
2013-08-25 21:07:00,76.4,39.9,29.78,SSE,167,9.2,9.2,27,0.00,CLR,,0.00,WeatherDisplay:10.37,2013-08-26 04:07:00,
2013-08-25 21:12:00,75.5,39.2,29.78,South,191,4.6,4.6,27,0.00,CLR,,0.00,WeatherDisplay:10.37,2013-08-26 04:12:00,
2013-08-25 21:17:00,75.3,39.9,29.78,South,178,6.9,6.9,28,0.00,CLR,,0.00,WeatherDisplay:10.37,2013-08-26 04:17:00,
2013-08-25 21:22:00,75.4,40.9,29.79,South,175,12.7,12.7,29,0.00,CLR,,0.00,WeatherDisplay:10.37,2013-08-26 04:22:00,
2013-08-25 21:27:00,76.0,41.4,29.79,South,178,12.7,12.7,29,0.00,CLR,,0.00,WeatherDisplay:10.37,2013-08-26 04:27:00,
2013-08-25 21:32:00,75.1,39.8,29.79,SW,234,6.9,6.9,28,0.00,CLR,,0.00,WeatherDisplay:10.37,2013-08-26 04:32:00,
2013-08-25 21:37:00,74.5,40.1,29.79,WSW,246,9.2,9.2,29,0.00,CLR,,0.00,WeatherDisplay:10.37,2013-08-26 04:37:00,
2013-08-25 21:42:00,74.8,40.4,29.79,SW,218,11.5,11.6,29,0.00,CLR,,0.00,WeatherDisplay:10.37,2013-08-26 04:42:00,
2013-08-25 21:47:00,74.4,39.2,29.79,SW,228,10.4,10.4,28,0.00,CLR,,0.00,WeatherDisplay:10.37,2013-08-26 04:47:00,
2013-08-25 21:52:00,73.0,38.9,29.79,SW,229,9.2,9.2,29,0.00,CLR,,0.00,WeatherDisplay:10.37,2013-08-26 04:52:00,
2013-08-25 21:57:00,72.4,38.3,29.79,SW,219,10.4,10.4,29,0.00,CLR,,0.00,WeatherDisplay:10.37,2013-08-26 04:57:00,
2013-08-25 22:02:00,71.7,38.6,29.79,SW,219,11.5,11.5,30,0.00,CLR,,0.00,WeatherDisplay:10.37,2013-08-26 05:02:00,
2013-08-25 22:07:00,71.8,38.7,29.79,WSW,238,10.4,10.4,30,0.00,OVC,,0.00,WeatherDisplay:10.37,2013-08-26 05:07:00,
2013-08-25 22:12:00,72.3,39.1,29.79,SW,219,10.4,10.4,30,0.00,OVC,,0.00,WeatherDisplay:10.37,2013-08-26 05:12:00,
2013-08-25 22:17:00,72.5,38.4,29.80,SW,232,6.9,6.9,29,0.00,OVC,,0.00,WeatherDisplay:10.37,2013-08-26 05:17:00,
2013-08-25 22:22:00,72.5,39.3,29.80,WSW,246,3.5,3.5,30,0.00,OVC,,0.00,WeatherDisplay:10.37,2013-08-26 05:22:00,
2013-08-25 22:27:00,72.1,38.9,29.80,WSW,246,3.5,3.5,30,0.00,OVC,,0.00,WeatherDisplay:10.37,2013-08-26 05:27:00,
2013-08-25 22:32:00,71.6,38.5,29.80,WSW,240,3.5,3.5,30,0.00,OVC,,0.00,WeatherDisplay:10.37,2013-08-26 05:32:00,
2013-08-25 22:37:00,71.1,38.1,29.80,SSW,206,4.6,4.6,30,0.00,OVC,,0.00,WeatherDisplay:10.37,2013-08-26 05:37:00,
2013-08-25 22:42:00,70.6,38.5,29.80,SW,234,8.1,8.1,31,0.00,OVC,,0.00,WeatherDisplay:10.37,2013-08-26 05:42:00,
2013-08-25 22:47:00,70.0,38.0,29.80,SW,223,8.1,8.1,31,0.00,OVC,,0.00,WeatherDisplay:10.37,2013-08-26 05:47:00,
2013-08-25 22:52:00,69.1,37.2,29.80,South,184,5.0,5.2,31,0.00,OVC,,0.00,WeatherDisplay:10.37,2013-08-26 05:52:00,
2013-08-25 22:57:00,69.0,37.9,29.80,SSW,212,4.6,5.3,32,0.00,OVC,,0.00,WeatherDisplay:10.37,2013-08-26 05:57:00,
2013-08-25 23:02:00,70.2,38.1,29.80,SW,219,6.9,6.9,31,0.00,OVC,,0.00,WeatherDisplay:10.37,2013-08-26 06:02:00,
2013-08-25 23:07:00,70.3,38.2,29.81,SW,222,4.6,4.6,31,0.00,OVC,,0.00,WeatherDisplay:10.37,2013-08-26 06:07:00,
2013-08-25 23:12:00,70.1,38.0,29.81,SW,215,4.0,4.0,31,0.00,OVC,,0.00,WeatherDisplay:10.37,2013-08-26 06:12:00,
2013-08-25 23:17:00,71.3,38.2,29.81,WSW,246,5.0,5.0,30,0.00,OVC,,0.00,WeatherDisplay:10.37,2013-08-26 06:17:00,
2013-08-25 23:22:00,71.6,37.6,29.81,WSW,246,5.8,5.8,29,0.00,OVC,,0.00,WeatherDisplay:10.37,2013-08-26 06:22:00,
2013-08-25 23:27:00,70.5,36.7,29.81,SSW,203,4.6,4.6,29,0.00,OVC,,0.00,WeatherDisplay:10.37,2013-08-26 06:27:00,
2013-08-25 23:32:00,69.6,36.8,29.81,SSW,197,8.1,8.1,30,0.00,OVC,,0.00,WeatherDisplay:10.37,2013-08-26 06:32:00,
2013-08-25 23:37:00,67.9,36.9,29.81,SSW,198,7.0,7.0,32,0.00,OVC,,0.00,WeatherDisplay:10.37,2013-08-26 06:37:00,
2013-08-25 23:42:00,69.4,38.2,29.81,SSW,208,7.0,7.0,32,0.00,OVC,,0.00,WeatherDisplay:10.37,2013-08-26 06:42:00,
2013-08-25 23:47:00,67.4,36.5,29.81,South,189,8.1,8.1,32,0.00,OVC,,0.00,WeatherDisplay:10.37,2013-08-26 06:47:00,
2013-08-25 23:52:00,67.2,37.1,29.80,SSW,210,8.1,8.1,33,0.00,OVC,,0.00,WeatherDisplay:10.37,2013-08-26 06:52:00,
2013-08-25 23:57:00,67.0,36.1,29.81,South,185,6.0,6.0,32,0.00,OVC,,0.00,WeatherDisplay:10.37,2013-08-26 06:57:00,